Time;durP1;ratioP1;P1;durP2;ratioP2;P2;SDS_P1;SDS_P2;PMS_P1;PMS_P2;Temp;Humidity;BMP_temperature;BMP_pressure;BME280_temperature;BME280_humidity;BME280_pressure;Samples;Min_cycle;Max_cycle;Signal;HPM_P1;HPM_P2
2022/07/26 00:00:27;;;;;;;7.80;5.95;;;;;;;;;;5016247;28;20033;-60
2022/07/26 00:02:53;;;;;;;8.25;6.63;;;;;;;;;;5021513;28;20041;-60
2022/07/26 00:05:19;;;;;;;12.50;7.03;;;;;;;;;;5030651;28;20040;-60
2022/07/26 00:07:45;;;;;;;9.63;6.95;;;;;;;;;;5028916;28;20112;-62
2022/07/26 00:10:11;;;;;;;10.18;6.80;;;;;;;;;;5028839;28;20104;-60
2022/07/26 00:12:37;;;;;;;13.02;6.88;;;;;;;;;;5032157;28;20416;-60
2022/07/26 00:15:05;;;;;;;8.25;6.05;;;;;;;;;;5032305;28;20032;-60
2022/07/26 00:17:31;;;;;;;9.02;5.85;;;;;;;;;;5027090;28;20053;-60
2022/07/26 00:19:57;;;;;;;10.23;6.50;;;;;;;;;;5021844;28;20077;-61
2022/07/26 00:22:35;;;;;;;11.57;6.63;;;;;;;;;;5015762;28;20064;-60
2022/07/26 00:25:02;;;;;;;8.43;6.10;;;;;;;;;;5029308;28;20025;-60
2022/07/26 00:27:28;;;;;;;10.48;6.85;;;;;;;;;;5029257;28;20032;-60
2022/07/26 00:29:54;;;;;;;8.18;6.38;;;;;;;;;;5018973;28;20021;-63
2022/07/26 00:32:20;;;;;;;7.95;6.50;;;;;;;;;;5028644;28;20040;-59
2022/07/26 00:34:46;;;;;;;9.25;6.03;;;;;;;;;;5025195;28;20025;-60
2022/07/26 00:37:12;;;;;;;7.80;6.13;;;;;;;;;;5016999;28;20034;-63
2022/07/26 00:39:38;;;;;;;7.88;5.88;;;;;;;;;;5025000;28;20049;-60
2022/07/26 00:42:04;;;;;;;10.05;7.00;;;;;;;;;;5026198;28;20469;-63
2022/07/26 00:44:37;;;;;;;8.63;5.85;;;;;;;;;;5028508;28;20029;-60
2022/07/26 00:47:03;;;;;;;7.80;5.75;;;;;;;;;;5026368;28;20056;-58
2022/07/26 00:49:29;;;;;;;7.05;5.43;;;;;;;;;;5022580;28;20061;-60
2022/07/26 00:51:55;;;;;;;10.27;6.10;;;;;;;;;;5025546;28;20029;-60
2022/07/26 00:54:21;;;;;;;8.35;6.57;;;;;;;;;;5016820;28;20104;-61
2022/07/26 00:56:47;;;;;;;10.20;6.90;;;;;;;;;;5016397;28;20045;-60
2022/07/26 00:59:13;;;;;;;9.23;7.30;;;;;;;;;;5019808;28;20028;-60
2022/07/26 01:01:39;;;;;;;8.10;6.47;;;;;;;;;;5029713;28;20060;-61
2022/07/26 01:04:05;;;;;;;7.80;5.68;;;;;;;;;;5034864;28;20047;-58
2022/07/26 01:06:30;;;;;;;10.00;7.45;;;;;;;;;;5030209;28;20025;-59
2022/07/26 01:08:56;;;;;;;10.15;6.38;;;;;;;;;;5021119;28;20032;-61
2022/07/26 01:11:22;;;;;;;8.32;6.32;;;;;;;;;;5012885;28;20184;-62
2022/07/26 01:13:49;;;;;;;7.47;6.22;;;;;;;;;;5030962;28;20037;-61
2022/07/26 01:16:16;;;;;;;9.98;7.38;;;;;;;;;;5028196;28;20556;-61
2022/07/26 01:18:42;;;;;;;9.77;6.78;;;;;;;;;;5025299;28;20048;-60
2022/07/26 01:21:09;;;;;;;10.80;7.05;;;;;;;;;;5019017;28;20030;-60
2022/07/26 01:23:36;;;;;;;10.10;6.70;;;;;;;;;;5023935;28;20047;-61
2022/07/26 01:26:02;;;;;;;10.23;7.13;;;;;;;;;;5024407;28;20040;-61
2022/07/26 01:28:28;;;;;;;10.88;7.47;;;;;;;;;;5021374;28;20485;-61
2022/07/26 01:30:54;;;;;;;10.13;6.30;;;;;;;;;;5013422;28;20099;-60
2022/07/26 01:33:20;;;;;;;7.45;5.90;;;;;;;;;;5022375;28;20101;-62
2022/07/26 01:35:46;;;;;;;7.75;6.30;;;;;;;;;;5023451;28;20030;-61
2022/07/26 01:38:12;;;;;;;8.82;7.05;;;;;;;;;;5024464;28;20032;-61
2022/07/26 01:40:38;;;;;;;10.98;6.28;;;;;;;;;;5027694;28;20101;-60
2022/07/26 01:43:04;;;;;;;11.43;7.50;;;;;;;;;;5024671;28;20111;-60
2022/07/26 01:45:30;;;;;;;7.82;6.47;;;;;;;;;;5012610;28;20033;-61
2022/07/26 01:47:56;;;;;;;10.52;7.30;;;;;;;;;;5029767;28;20037;-60
2022/07/26 01:50:22;;;;;;;8.85;6.72;;;;;;;;;;5011912;28;20038;-60
2022/07/26 01:52:48;;;;;;;6.63;5.63;;;;;;;;;;5027668;28;20112;-61
2022/07/26 01:55:14;;;;;;;7.95;6.35;;;;;;;;;;5021496;28;20054;-60
2022/07/26 01:57:41;;;;;;;9.98;6.13;;;;;;;;;;5026968;28;20397;-61
2022/07/26 02:00:07;;;;;;;10.10;6.45;;;;;;;;;;5011187;28;20531;-60
2022/07/26 02:02:33;;;;;;;11.25;7.47;;;;;;;;;;5025283;28;20405;-60
2022/07/26 02:05:00;;;;;;;11.30;7.25;;;;;;;;;;5025645;28;20038;-61
2022/07/26 02:07:28;;;;;;;9.10;6.50;;;;;;;;;;5030529;28;20533;-59
2022/07/26 02:09:54;;;;;;;10.70;6.65;;;;;;;;;;5028282;28;20111;-60
2022/07/26 02:12:20;;;;;;;7.53;6.07;;;;;;;;;;5029055;28;20053;-59
2022/07/26 02:14:46;;;;;;;13.60;7.55;;;;;;;;;;5024559;28;20029;-60
2022/07/26 02:17:12;;;;;;;10.82;7.38;;;;;;;;;;5028801;28;20096;-60
2022/07/26 02:19:38;;;;;;;11.98;6.78;;;;;;;;;;5020644;28;20040;-60
2022/07/26 02:22:04;;;;;;;10.25;7.00;;;;;;;;;;5012635;28;20421;-59
2022/07/26 02:24:30;;;;;;;8.68;6.63;;;;;;;;;;5022253;28;20021;-59
2022/07/26 02:26:57;;;;;;;10.30;7.03;;;;;;;;;;5016817;28;20068;-59
2022/07/26 02:29:23;;;;;;;10.77;6.43;;;;;;;;;;5026831;28;20097;-60
2022/07/26 02:31:49;;;;;;;8.82;6.53;;;;;;;;;;5029961;28;20022;-61
2022/07/26 02:34:15;;;;;;;8.75;6.22;;;;;;;;;;5030819;28;20083;-59
2022/07/26 02:36:41;;;;;;;10.02;6.78;;;;;;;;;;5022564;28;20029;-59
2022/07/26 02:39:07;;;;;;;8.82;5.90;;;;;;;;;;5020964;28;20253;-59
2022/07/26 02:41:33;;;;;;;8.90;6.47;;;;;;;;;;5031693;28;20029;-60
2022/07/26 02:43:59;;;;;;;9.20;6.55;;;;;;;;;;5031856;28;20034;-60
2022/07/26 02:46:25;;;;;;;8.48;6.55;;;;;;;;;;5029453;28;20462;-61
2022/07/26 02:48:51;;;;;;;10.70;5.55;;;;;;;;;;5024320;28;20101;-60
2022/07/26 02:51:17;;;;;;;10.60;5.85;;;;;;;;;;5017079;28;20033;-60
2022/07/26 02:53:43;;;;;;;7.75;6.30;;;;;;;;;;5032511;28;20042;-60
2022/07/26 02:56:09;;;;;;;8.35;5.97;;;;;;;;;;5030132;28;20068;-60
2022/07/26 02:58:36;;;;;;;16.08;7.05;;;;;;;;;;5033816;28;20037;-60
2022/07/26 03:01:02;;;;;;;8.82;6.47;;;;;;;;;;5025578;28;20116;-60
2022/07/26 03:03:28;;;;;;;9.88;6.65;;;;;;;;;;5032489;28;20044;-60
2022/07/26 03:05:54;;;;;;;9.13;6.28;;;;;;;;;;5033775;28;20030;-60
2022/07/26 03:08:21;;;;;;;10.45;6.22;;;;;;;;;;5031170;28;20033;-60
2022/07/26 03:10:47;;;;;;;11.65;6.70;;;;;;;;;;5028403;28;20084;-61
2022/07/26 03:13:14;;;;;;;10.27;6.70;;;;;;;;;;5028188;28;20030;-59
2022/07/26 03:15:40;;;;;;;10.65;6.05;;;;;;;;;;5018618;28;20010;-61
2022/07/26 03:18:06;;;;;;;11.75;6.47;;;;;;;;;;5022649;28;20037;-60
2022/07/26 03:20:32;;;;;;;8.65;5.85;;;;;;;;;;5018571;28;20485;-60
2022/07/26 03:22:58;;;;;;;6.82;5.35;;;;;;;;;;5029093;28;20026;-60
2022/07/26 03:25:23;;;;;;;10.88;5.53;;;;;;;;;;5029415;28;20546;-59
2022/07/26 03:27:49;;;;;;;10.13;6.55;;;;;;;;;;5015058;28;20026;-60
2022/07/26 03:30:15;;;;;;;12.75;6.22;;;;;;;;;;5023620;28;20030;-60
2022/07/26 03:32:41;;;;;;;9.15;5.45;;;;;;;;;;5025180;28;20164;-60
2022/07/26 03:35:08;;;;;;;9.13;5.47;;;;;;;;;;5019769;28;20104;-60
2022/07/26 03:37:34;;;;;;;7.88;5.28;;;;;;;;;;5023721;28;20044;-60
2022/07/26 03:40:00;;;;;;;6.95;4.90;;;;;;;;;;5027035;28;20095;-60
2022/07/26 03:42:26;;;;;;;7.90;4.97;;;;;;;;;;5032792;28;20465;-59
2022/07/26 03:44:52;;;;;;;6.78;4.45;;;;;;;;;;5027606;28;20407;-59
2022/07/26 03:47:18;;;;;;;6.78;4.88;;;;;;;;;;5028689;28;20022;-60
2022/07/26 03:49:43;;;;;;;7.63;4.50;;;;;;;;;;5024351;28;20437;-61
2022/07/26 03:52:09;;;;;;;9.65;5.00;;;;;;;;;;5023068;28;20049;-59
2022/07/26 03:54:36;;;;;;;6.50;4.57;;;;;;;;;;5031015;28;20029;-59
2022/07/26 03:57:02;;;;;;;10.13;5.05;;;;;;;;;;5017139;28;20129;-59
2022/07/26 03:59:28;;;;;;;7.55;4.68;;;;;;;;;;5031413;28;20108;-60
2022/07/26 04:01:54;;;;;;;6.30;4.70;;;;;;;;;;5027910;28;20033;-60
2022/07/26 04:04:20;;;;;;;8.43;4.47;;;;;;;;;;5017958;28;20414;-61
2022/07/26 04:06:46;;;;;;;7.07;3.90;;;;;;;;;;5023367;28;20045;-60
2022/07/26 04:09:13;;;;;;;7.20;4.70;;;;;;;;;;5032656;28;20030;-59
2022/07/26 04:11:39;;;;;;;7.63;5.20;;;;;;;;;;5026132;28;20097;-60
2022/07/26 04:14:05;;;;;;;6.95;4.93;;;;;;;;;;5026616;28;20045;-60
2022/07/26 04:16:31;;;;;;;9.15;4.40;;;;;;;;;;5030514;28;20095;-60
2022/07/26 04:18:57;;;;;;;9.82;4.93;;;;;;;;;;5029986;28;20069;-59
2022/07/26 04:21:24;;;;;;;13.10;5.70;;;;;;;;;;5021476;28;20030;-59
2022/07/26 04:23:50;;;;;;;7.53;4.60;;;;;;;;;;5013839;28;20025;-59
2022/07/26 04:26:16;;;;;;;9.38;4.88;;;;;;;;;;5024868;28;20097;-59
2022/07/26 04:28:42;;;;;;;9.05;4.80;;;;;;;;;;5013776;28;20121;-59
2022/07/26 04:31:08;;;;;;;9.48;4.93;;;;;;;;;;5025314;28;20025;-60
2022/07/26 04:33:34;;;;;;;9.65;5.13;;;;;;;;;;5016835;28;20030;-60
2022/07/26 04:36:01;;;;;;;6.93;4.57;;;;;;;;;;5029510;28;20017;-60
2022/07/26 04:38:27;;;;;;;16.33;5.90;;;;;;;;;;5021841;28;20098;-60
2022/07/26 04:40:54;;;;;;;11.30;5.25;;;;;;;;;;5023471;28;20037;-60
2022/07/26 04:43:20;;;;;;;8.48;5.40;;;;;;;;;;5018599;28;20580;-61
2022/07/26 04:45:46;;;;;;;11.88;4.78;;;;;;;;;;5026097;28;20037;-60
2022/07/26 04:48:13;;;;;;;9.15;5.07;;;;;;;;;;5020209;28;20477;-60
2022/07/26 04:50:39;;;;;;;6.72;4.75;;;;;;;;;;5020448;28;20096;-61
2022/07/26 04:53:06;;;;;;;12.05;5.20;;;;;;;;;;5019291;28;20188;-60
2022/07/26 04:55:32;;;;;;;11.88;5.07;;;;;;;;;;5026940;28;20493;-60
2022/07/26 04:57:58;;;;;;;11.85;5.30;;;;;;;;;;5026828;28;20050;-60
2022/07/26 05:00:24;;;;;;;7.07;4.72;;;;;;;;;;5019249;28;20029;-60
2022/07/26 05:02:51;;;;;;;9.15;4.65;;;;;;;;;;5030456;28;20025;-60
2022/07/26 05:05:17;;;;;;;8.52;5.43;;;;;;;;;;5031306;28;20033;-60
2022/07/26 05:07:45;;;;;;;6.72;5.00;;;;;;;;;;5021737;28;20084;-61
2022/07/26 05:10:11;;;;;;;10.95;5.38;;;;;;;;;;5023169;28;20034;-60
2022/07/26 05:12:37;;;;;;;12.65;5.68;;;;;;;;;;5022664;28;20048;-60
2022/07/26 05:15:03;;;;;;;8.30;4.88;;;;;;;;;;5031199;28;20048;-60
2022/07/26 05:17:29;;;;;;;10.55;5.43;;;;;;;;;;5023659;28;20037;-59
2022/07/26 05:19:55;;;;;;;10.45;5.95;;;;;;;;;;5030129;28;20030;-60
2022/07/26 05:22:21;;;;;;;12.10;5.00;;;;;;;;;;5020069;28;20044;-59
2022/07/26 05:24:47;;;;;;;12.55;6.30;;;;;;;;;;5025490;28;20032;-60
2022/07/26 05:27:13;;;;;;;14.60;5.93;;;;;;;;;;5022755;28;20103;-59
2022/07/26 05:29:39;;;;;;;11.07;5.40;;;;;;;;;;5022604;28;20064;-61
2022/07/26 05:32:05;;;;;;;7.97;4.43;;;;;;;;;;5027427;28;20036;-60
2022/07/26 05:34:31;;;;;;;9.48;4.00;;;;;;;;;;5030999;28;20468;-61
2022/07/26 05:36:57;;;;;;;9.70;4.45;;;;;;;;;;5024783;28;20083;-60
2022/07/26 05:39:23;;;;;;;9.07;4.28;;;;;;;;;;5024467;28;20040;-60
2022/07/26 05:41:49;;;;;;;9.98;4.38;;;;;;;;;;5017239;28;20058;-60
2022/07/26 05:44:15;;;;;;;9.77;4.35;;;;;;;;;;5018030;28;20030;-60
2022/07/26 05:46:41;;;;;;;9.35;4.07;;;;;;;;;;5025674;28;20033;-61
2022/07/26 05:49:07;;;;;;;12.50;3.50;;;;;;;;;;5016303;28;20030;-60
2022/07/26 05:51:33;;;;;;;9.93;3.13;;;;;;;;;;5018106;28;20029;-60
2022/07/26 05:53:59;;;;;;;10.00;3.65;;;;;;;;;;5017652;28;20057;-61
2022/07/26 05:56:25;;;;;;;7.18;3.28;;;;;;;;;;5027091;28;20053;-60
2022/07/26 05:58:51;;;;;;;8.32;2.78;;;;;;;;;;5014892;28;20029;-61
2022/07/26 06:01:17;;;;;;;5.30;2.60;;;;;;;;;;5023650;28;20424;-60
2022/07/26 06:03:43;;;;;;;8.85;3.15;;;;;;;;;;5020903;28;20038;-61
2022/07/26 06:06:10;;;;;;;9.98;2.97;;;;;;;;;;5024911;28;20033;-61
2022/07/26 06:08:36;;;;;;;7.28;2.70;;;;;;;;;;5028454;28;20041;-60
2022/07/26 06:11:02;;;;;;;12.63;2.90;;;;;;;;;;5029649;28;20029;-60
2022/07/26 06:13:28;;;;;;;6.07;2.20;;;;;;;;;;5026478;28;20026;-60
2022/07/26 06:15:54;;;;;;;11.02;2.53;;;;;;;;;;5031073;28;20052;-60
2022/07/26 06:18:20;;;;;;;6.05;1.92;;;;;;;;;;5031578;28;20025;-60
2022/07/26 06:20:46;;;;;;;5.72;2.63;;;;;;;;;;5020070;28;20101;-60
2022/07/26 06:23:13;;;;;;;5.80;2.35;;;;;;;;;;5028570;28;20029;-60
2022/07/26 06:25:39;;;;;;;9.38;2.85;;;;;;;;;;5028545;28;20430;-60
2022/07/26 06:28:07;;;;;;;7.30;2.22;;;;;;;;;;5034287;28;20029;-61
2022/07/26 06:30:33;;;;;;;7.57;2.20;;;;;;;;;;5028056;28;20014;-60
2022/07/26 06:32:59;;;;;;;9.77;2.00;;;;;;;;;;5020110;28;20022;-60
2022/07/26 06:35:29;;;;;;;10.80;2.28;;;;;;;;;;5026962;28;20025;-61
2022/07/26 06:37:56;;;;;;;5.35;1.83;;;;;;;;;;5023199;28;20030;-61
2022/07/26 06:40:22;;;;;;;8.40;1.98;;;;;;;;;;5029813;28;20078;-61
2022/07/26 06:42:48;;;;;;;6.55;2.03;;;;;;;;;;5026181;28;20664;-61
2022/07/26 06:45:14;;;;;;;6.03;2.08;;;;;;;;;;5027203;28;20026;-59
2022/07/26 06:47:40;;;;;;;5.90;1.95;;;;;;;;;;5029929;28;20025;-60
2022/07/26 06:50:06;;;;;;;10.40;2.17;;;;;;;;;;5029796;28;20076;-61
2022/07/26 06:52:32;;;;;;;6.40;2.65;;;;;;;;;;5027504;28;20220;-60
2022/07/26 06:54:59;;;;;;;11.57;2.05;;;;;;;;;;5031057;28;20009;-61
2022/07/26 06:57:25;;;;;;;7.43;1.90;;;;;;;;;;5030361;28;20061;-60
2022/07/26 06:59:51;;;;;;;4.80;1.58;;;;;;;;;;5026814;28;20026;-60
2022/07/26 07:02:17;;;;;;;11.60;1.80;;;;;;;;;;5029956;28;20052;-60
2022/07/26 07:04:43;;;;;;;8.00;1.90;;;;;;;;;;5031334;28;20128;-60
2022/07/26 07:07:09;;;;;;;11.10;1.98;;;;;;;;;;5023618;28;20034;-60
2022/07/26 07:09:36;;;;;;;12.25;2.08;;;;;;;;;;5032604;28;20108;-60
2022/07/26 07:12:03;;;;;;;5.22;1.58;;;;;;;;;;5026098;28;20032;-60
2022/07/26 07:14:29;;;;;;;7.63;1.83;;;;;;;;;;5029920;28;20041;-60
2022/07/26 07:16:56;;;;;;;5.05;1.42;;;;;;;;;;5032191;28;20037;-60
2022/07/26 07:19:22;;;;;;;6.80;1.98;;;;;;;;;;5030465;28;20496;-61
2022/07/26 07:21:48;;;;;;;8.25;1.90;;;;;;;;;;5029828;28;20094;-60
2022/07/26 07:24:14;;;;;;;8.07;1.83;;;;;;;;;;5022491;28;20033;-60
2022/07/26 07:26:40;;;;;;;5.95;1.63;;;;;;;;;;5032061;28;20025;-60
2022/07/26 07:29:09;;;;;;;5.65;1.83;;;;;;;;;;5021626;28;20355;-60
2022/07/26 07:31:35;;;;;;;11.93;2.28;;;;;;;;;;5029466;28;20477;-59
2022/07/26 07:34:00;;;;;;;6.07;1.50;;;;;;;;;;5019117;28;20110;-60
2022/07/26 07:36:26;;;;;;;7.93;1.90;;;;;;;;;;5022566;28;20038;-60
2022/07/26 07:38:52;;;;;;;6.68;1.70;;;;;;;;;;5032968;28;20473;-61
2022/07/26 07:41:18;;;;;;;5.88;1.55;;;;;;;;;;5029913;28;20566;-60
2022/07/26 07:43:44;;;;;;;10.48;1.55;;;;;;;;;;5030353;28;20386;-59
2022/07/26 07:46:11;;;;;;;11.52;1.67;;;;;;;;;;5024626;28;20103;-61
2022/07/26 07:48:39;;;;;;;4.68;1.38;;;;;;;;;;5029064;28;20017;-60
2022/07/26 07:51:05;;;;;;;5.28;1.20;;;;;;;;;;5030879;28;20029;-61
2022/07/26 07:53:31;;;;;;;7.63;1.77;;;;;;;;;;5023394;28;20036;-60
2022/07/26 07:55:57;;;;;;;7.03;1.38;;;;;;;;;;5027146;28;20466;-60
2022/07/26 07:58:23;;;;;;;3.50;1.10;;;;;;;;;;5018059;28;20041;-61
2022/07/26 08:00:49;;;;;;;8.75;1.48;;;;;;;;;;5023372;28;20044;-60
2022/07/26 08:03:16;;;;;;;2.45;0.82;;;;;;;;;;5030492;28;20057;-60
2022/07/26 08:05:42;;;;;;;3.80;1.08;;;;;;;;;;5022889;28;20049;-60
2022/07/26 08:08:08;;;;;;;6.70;1.30;;;;;;;;;;5016517;28;20030;-60
2022/07/26 08:10:34;;;;;;;5.70;1.27;;;;;;;;;;5027472;28;20382;-60
2022/07/26 08:13:00;;;;;;;8.73;1.50;;;;;;;;;;5022842;28;20030;-60
2022/07/26 08:15:26;;;;;;;2.08;1.27;;;;;;;;;;5030211;28;20034;-60
2022/07/26 08:17:52;;;;;;;2.80;1.15;;;;;;;;;;5028927;28;20531;-60
2022/07/26 08:20:18;;;;;;;4.93;1.33;;;;;;;;;;5035929;28;20466;-59
2022/07/26 08:22:44;;;;;;;4.82;1.20;;;;;;;;;;5031145;28;20097;-60
2022/07/26 08:25:10;;;;;;;3.95;1.13;;;;;;;;;;5025691;28;20122;-60
2022/07/26 08:27:36;;;;;;;4.10;1.33;;;;;;;;;;5028980;28;20029;-60
2022/07/26 08:30:03;;;;;;;5.40;1.15;;;;;;;;;;5029624;28;20076;-60
2022/07/26 08:32:29;;;;;;;5.47;1.02;;;;;;;;;;5026893;28;20036;-60
2022/07/26 08:34:55;;;;;;;1.77;0.90;;;;;;;;;;5024660;28;20025;-60
2022/07/26 08:37:21;;;;;;;5.20;1.10;;;;;;;;;;5022642;28;20033;-60
2022/07/26 08:39:47;;;;;;;3.58;0.88;;;;;;;;;;5030348;28;20026;-61
2022/07/26 08:42:14;;;;;;;4.90;0.90;;;;;;;;;;5032122;28;20033;-60
2022/07/26 08:44:41;;;;;;;4.65;1.00;;;;;;;;;;5026601;28;20477;-60
2022/07/26 08:47:09;;;;;;;3.13;0.88;;;;;;;;;;5031795;28;20029;-60
2022/07/26 08:49:35;;;;;;;4.63;0.90;;;;;;;;;;5029899;28;20026;-60
2022/07/26 08:52:01;;;;;;;2.90;1.05;;;;;;;;;;5031535;28;20029;-60
2022/07/26 08:54:27;;;;;;;3.35;0.93;;;;;;;;;;5023071;28;20052;-60
2022/07/26 08:56:53;;;;;;;2.53;0.88;;;;;;;;;;5026980;28;20096;-60
2022/07/26 08:59:20;;;;;;;3.80;1.17;;;;;;;;;;5030582;28;20397;-60
2022/07/26 09:01:51;;;;;;;2.35;0.85;;;;;;;;;;5028115;28;20044;-60
2022/07/26 09:04:17;;;;;;;5.10;0.85;;;;;;;;;;5030724;28;20041;-60
2022/07/26 09:06:53;;;;;;;2.55;0.90;;;;;;;;;;5031571;28;20436;-59
2022/07/26 09:09:19;;;;;;;4.35;0.93;;;;;;;;;;5030425;28;20072;-60
2022/07/26 09:11:45;;;;;;;8.00;0.90;;;;;;;;;;5031044;28;20021;-59
2022/07/26 09:14:11;;;;;;;3.15;0.75;;;;;;;;;;5029282;28;20033;-59
2022/07/26 09:16:38;;;;;;;4.45;0.73;;;;;;;;;;5034572;28;20096;-59
2022/07/26 09:19:17;;;;;;;4.22;1.10;;;;;;;;;;5023435;28;20029;-59
2022/07/26 09:21:45;;;;;;;3.05;1.13;;;;;;;;;;5030726;28;20090;-60
2022/07/26 09:24:11;;;;;;;4.55;1.08;;;;;;;;;;5031058;28;20040;-60
2022/07/26 09:26:37;;;;;;;6.35;0.95;;;;;;;;;;5030825;28;20053;-60
2022/07/26 09:29:10;;;;;;;7.80;1.40;;;;;;;;;;5022478;28;20029;-60
2022/07/26 09:31:37;;;;;;;5.25;1.77;;;;;;;;;;5029631;28;20112;-60
2022/07/26 09:34:04;;;;;;;4.55;0.93;;;;;;;;;;5031274;28;20037;-60
2022/07/26 09:36:30;;;;;;;3.17;0.82;;;;;;;;;;5030303;28;20539;-60
2022/07/26 09:38:58;;;;;;;4.57;1.10;;;;;;;;;;5026791;28;20033;-60
2022/07/26 09:41:32;;;;;;;6.00;1.05;;;;;;;;;;5037838;28;20033;-60
2022/07/26 09:43:59;;;;;;;6.13;1.20;;;;;;;;;;5030387;28;20083;-60
2022/07/26 09:46:25;;;;;;;7.13;1.08;;;;;;;;;;5030461;28;20022;-60
2022/07/26 09:48:52;;;;;;;6.82;0.90;;;;;;;;;;5022745;28;20022;-60
2022/07/26 09:51:35;;;;;;;6.30;0.85;;;;;;;;;;5018538;28;20034;-60
2022/07/26 09:54:00;;;;;;;4.37;0.97;;;;;;;;;;5023210;28;20079;-60
2022/07/26 09:56:40;;;;;;;5.10;0.88;;;;;;;;;;5030536;28;20477;-59
2022/07/26 09:59:06;;;;;;;7.45;1.10;;;;;;;;;;5030096;28;20036;-59
2022/07/26 10:01:32;;;;;;;3.80;1.02;;;;;;;;;;5029548;28;20025;-60
2022/07/26 10:03:59;;;;;;;4.32;1.00;;;;;;;;;;5030498;28;20025;-59
2022/07/26 10:06:25;;;;;;;2.20;0.95;;;;;;;;;;5028073;28;20118;-59
2022/07/26 10:08:51;;;;;;;5.05;0.90;;;;;;;;;;5021563;28;20389;-60
2022/07/26 10:11:18;;;;;;;2.63;1.30;;;;;;;;;;5023010;28;20084;-60
2022/07/26 10:13:44;;;;;;;2.97;0.93;;;;;;;;;;5029939;28;20079;-60
2022/07/26 10:16:31;;;;;;;8.80;1.08;;;;;;;;;;5030764;28;20096;-60
2022/07/26 10:18:58;;;;;;;4.50;1.02;;;;;;;;;;5025139;28;20036;-59
2022/07/26 10:21:25;;;;;;;4.13;1.00;;;;;;;;;;5029521;28;20079;-59
2022/07/26 10:23:51;;;;;;;5.70;1.27;;;;;;;;;;5029852;28;20036;-59
2022/07/26 10:26:33;;;;;;;9.95;1.23;;;;;;;;;;5026384;28;20022;-59
2022/07/26 10:29:18;;;;;;;7.63;1.30;;;;;;;;;;5030392;28;20040;-60
2022/07/26 10:31:48;;;;;;;7.50;1.20;;;;;;;;;;5016582;28;20080;-59
2022/07/26 10:34:30;;;;;;;6.18;1.20;;;;;;;;;;5030640;28;20033;-60
2022/07/26 10:36:57;;;;;;;4.72;1.20;;;;;;;;;;5022483;28;20091;-59
2022/07/26 10:39:24;;;;;;;4.25;1.08;;;;;;;;;;5028539;28;20531;-59
2022/07/26 10:41:58;;;;;;;9.55;1.40;;;;;;;;;;5030078;28;20103;-59
2022/07/26 10:44:26;;;;;;;4.38;1.02;;;;;;;;;;5030267;28;20036;-58
2022/07/26 10:46:55;;;;;;;2.88;1.20;;;;;;;;;;5030074;28;20469;-60
2022/07/26 10:49:26;;;;;;;4.60;1.17;;;;;;;;;;5028412;28;20029;-59
2022/07/26 10:52:03;;;;;;;3.92;0.82;;;;;;;;;;5029932;28;20504;-59
2022/07/26 10:54:29;;;;;;;3.03;1.05;;;;;;;;;;5028097;28;20029;-59
2022/07/26 10:56:56;;;;;;;5.63;1.08;;;;;;;;;;5030107;28;20041;-59
2022/07/26 10:59:31;;;;;;;4.95;0.98;;;;;;;;;;5025339;28;20128;-59
2022/07/26 11:01:58;;;;;;;3.33;1.00;;;;;;;;;;5031414;28;20030;-59
2022/07/26 11:04:24;;;;;;;1.13;0.70;;;;;;;;;;5033642;28;20029;-59
2022/07/26 11:06:50;;;;;;;6.05;1.00;;;;;;;;;;5032407;28;20385;-59
2022/07/26 11:09:18;;;;;;;5.47;0.93;;;;;;;;;;5033558;28;20018;-59
2022/07/26 11:11:45;;;;;;;4.53;0.73;;;;;;;;;;5033523;28;20040;-60
2022/07/26 11:14:11;;;;;;;3.45;0.77;;;;;;;;;;5033241;28;20043;-61
2022/07/26 11:16:38;;;;;;;2.97;0.93;;;;;;;;;;5033697;28;20029;-58
2022/07/26 11:19:14;;;;;;;6.22;0.70;;;;;;;;;;5040026;28;20025;-59
2022/07/26 11:21:41;;;;;;;3.20;0.90;;;;;;;;;;5032292;28;20030;-59
2022/07/26 11:24:07;;;;;;;4.93;1.20;;;;;;;;;;5032175;28;20021;-59
2022/07/26 11:26:40;;;;;;;3.85;1.00;;;;;;;;;;5026568;28;20056;-59
2022/07/26 11:29:06;;;;;;;6.13;1.30;;;;;;;;;;5021337;28;20029;-60
2022/07/26 11:31:39;;;;;;;8.07;1.38;;;;;;;;;;5031554;28;20609;-59
2022/07/26 11:34:06;;;;;;;6.25;1.20;;;;;;;;;;5032417;28;20033;-59
2022/07/26 11:36:32;;;;;;;7.55;1.42;;;;;;;;;;5025416;28;20492;-59
2022/07/26 11:39:00;;;;;;;8.13;1.77;;;;;;;;;;5028008;28;20030;-59
2022/07/26 11:41:27;;;;;;;5.45;1.40;;;;;;;;;;5018981;28;20037;-59
2022/07/26 11:43:53;;;;;;;3.65;1.20;;;;;;;;;;5033357;28;20033;-59
2022/07/26 11:46:20;;;;;;;2.60;1.23;;;;;;;;;;5030020;28;20029;-59
2022/07/26 11:48:50;;;;;;;4.15;1.23;;;;;;;;;;5029967;28;20037;-59
2022/07/26 11:51:20;;;;;;;5.47;1.40;;;;;;;;;;5032366;28;20051;-59
2022/07/26 11:53:47;;;;;;;5.00;1.13;;;;;;;;;;5024067;28;20477;-59
2022/07/26 11:56:18;;;;;;;4.72;1.60;;;;;;;;;;5032582;28;20095;-59
2022/07/26 11:58:45;;;;;;;7.80;1.33;;;;;;;;;;5032968;28;20053;-59
2022/07/26 12:01:12;;;;;;;5.60;1.55;;;;;;;;;;5016306;28;20022;-60
2022/07/26 12:03:39;;;;;;;10.93;2.10;;;;;;;;;;5023683;28;20034;-59
2022/07/26 12:06:07;;;;;;;6.55;1.60;;;;;;;;;;5022551;28;20041;-59
2022/07/26 12:08:42;;;;;;;7.10;1.60;;;;;;;;;;5030567;28;20112;-59
2022/07/26 12:11:09;;;;;;;6.18;1.60;;;;;;;;;;5032164;28;20037;-60
2022/07/26 12:13:51;;;;;;;6.60;2.08;;;;;;;;;;5031690;28;20067;-59
2022/07/26 12:16:36;;;;;;;3.90;1.52;;;;;;;;;;5032541;28;20029;-59
2022/07/26 12:19:03;;;;;;;2.63;1.50;;;;;;;;;;5020391;28;20030;-59
2022/07/26 12:21:43;;;;;;;5.30;1.80;;;;;;;;;;5030905;28;20607;-59
2022/07/26 12:24:10;;;;;;;3.65;1.45;;;;;;;;;;5027116;28;20033;-59
2022/07/26 12:26:36;;;;;;;3.17;1.27;;;;;;;;;;5023350;28;20056;-59
2022/07/26 12:31:59;;;;;;;3.17;1.38;;;;;;;;;;5031324;28;20044;-59
2022/07/26 12:34:25;;;;;;;6.72;1.00;;;;;;;;;;5032006;28;20025;-60
2022/07/26 12:36:51;;;;;;;4.43;1.20;;;;;;;;;;5031951;28;20048;-59
2022/07/26 12:39:21;;;;;;;4.35;1.13;;;;;;;;;;5026236;28;20030;-60
2022/07/26 12:41:49;;;;;;;3.40;0.80;;;;;;;;;;5030567;28;20037;-59
2022/07/26 12:44:16;;;;;;;3.53;1.23;;;;;;;;;;5021865;28;20738;-60
2022/07/26 12:46:45;;;;;;;3.65;0.90;;;;;;;;;;5020220;28;20108;-60
2022/07/26 12:49:11;;;;;;;2.55;0.80;;;;;;;;;;5024531;28;20033;-60
2022/07/26 12:51:37;;;;;;;2.50;0.90;;;;;;;;;;5021603;28;20026;-60
2022/07/26 12:54:05;;;;;;;2.25;1.00;;;;;;;;;;5027640;28;20069;-59
2022/07/26 12:56:31;;;;;;;3.10;0.70;;;;;;;;;;5029358;28;20073;-59
2022/07/26 12:59:00;;;;;;;2.00;0.82;;;;;;;;;;5021103;28;20037;-59
2022/07/26 13:01:27;;;;;;;0.90;0.70;;;;;;;;;;5027060;28;20783;-59
2022/07/26 13:03:54;;;;;;;1.65;1.00;;;;;;;;;;5029027;28;20037;-59
2022/07/26 13:06:20;;;;;;;1.80;0.93;;;;;;;;;;5029760;28;20030;-60
2022/07/26 13:08:46;;;;;;;2.63;1.08;;;;;;;;;;5028589;28;20034;-60
2022/07/26 13:11:12;;;;;;;5.18;0.98;;;;;;;;;;5023459;28;20021;-59
2022/07/26 13:13:38;;;;;;;1.25;0.70;;;;;;;;;;5030329;28;20033;-60
2022/07/26 13:16:05;;;;;;;1.33;0.68;;;;;;;;;;5025818;28;20022;-60
2022/07/26 13:18:31;;;;;;;0.50;0.50;;;;;;;;;;5024736;28;20108;-59
2022/07/26 13:20:57;;;;;;;2.40;0.68;;;;;;;;;;5027773;28;20381;-60
2022/07/26 13:23:22;;;;;;;0.80;0.60;;;;;;;;;;5016765;28;20123;-59
2022/07/26 13:25:48;;;;;;;0.80;0.50;;;;;;;;;;5023504;28;20029;-60
2022/07/26 13:28:14;;;;;;;1.20;0.57;;;;;;;;;;5026289;28;20155;-59
2022/07/26 13:30:42;;;;;;;1.00;0.45;;;;;;;;;;5021404;28;20018;-59
2022/07/26 13:33:08;;;;;;;1.00;0.70;;;;;;;;;;5026934;28;20026;-59
2022/07/26 13:35:35;;;;;;;1.83;0.68;;;;;;;;;;5026536;28;20485;-60
2022/07/26 13:38:01;;;;;;;1.17;0.40;;;;;;;;;;5028130;28;20201;-59
2022/07/26 13:40:27;;;;;;;1.08;0.55;;;;;;;;;;5021105;28;20473;-59
2022/07/26 13:42:53;;;;;;;1.38;0.60;;;;;;;;;;5026654;28;20062;-60
2022/07/26 13:45:19;;;;;;;0.75;0.43;;;;;;;;;;5029493;28;20029;-60
2022/07/26 13:47:46;;;;;;;2.75;0.70;;;;;;;;;;5029065;28;20037;-60
2022/07/26 13:50:11;;;;;;;3.15;0.60;;;;;;;;;;5026360;28;20030;-60
2022/07/26 13:52:39;;;;;;;3.05;0.80;;;;;;;;;;5026704;28;20060;-60
2022/07/26 13:55:05;;;;;;;0.85;0.45;;;;;;;;;;5022275;28;20052;-60
2022/07/26 13:57:31;;;;;;;1.65;0.60;;;;;;;;;;5018956;28;20095;-61
2022/07/26 13:59:57;;;;;;;1.30;0.65;;;;;;;;;;5029544;28;20041;-60
2022/07/26 14:02:23;;;;;;;1.58;0.50;;;;;;;;;;5030094;28;20029;-61
2022/07/26 14:04:49;;;;;;;2.00;0.50;;;;;;;;;;5029209;28;20038;-61
2022/07/26 14:07:15;;;;;;;3.15;0.55;;;;;;;;;;5022751;28;20517;-60
2022/07/26 14:09:41;;;;;;;1.10;0.57;;;;;;;;;;5027329;28;20028;-60
2022/07/26 14:12:07;;;;;;;1.10;0.45;;;;;;;;;;5023504;28;20068;-60
2022/07/26 14:14:33;;;;;;;2.30;0.60;;;;;;;;;;5018033;28;20041;-61
2022/07/26 14:16:59;;;;;;;2.05;0.80;;;;;;;;;;5030236;28;20029;-61
2022/07/26 14:19:25;;;;;;;0.63;0.50;;;;;;;;;;5020557;28;20060;-61
2022/07/26 14:21:52;;;;;;;1.45;0.50;;;;;;;;;;5017901;28;20076;-61
2022/07/26 14:24:18;;;;;;;1.38;0.68;;;;;;;;;;5025113;28;20496;-61
2022/07/26 14:26:44;;;;;;;2.53;0.50;;;;;;;;;;5019569;28;20030;-60
2022/07/26 14:29:10;;;;;;;1.17;0.40;;;;;;;;;;5026292;28;20052;-59
2022/07/26 14:31:36;;;;;;;2.70;0.43;;;;;;;;;;5028484;28;20096;-60
2022/07/26 14:34:02;;;;;;;2.92;0.82;;;;;;;;;;5025776;28;20021;-59
2022/07/26 14:36:28;;;;;;;2.15;0.65;;;;;;;;;;5015124;28;20441;-59
2022/07/26 14:38:54;;;;;;;1.23;0.52;;;;;;;;;;5030218;28;20041;-61
2022/07/26 14:41:20;;;;;;;1.70;0.60;;;;;;;;;;5023595;28;20030;-59